Time;durP1;ratioP1;P1;durP2;ratioP2;P2;SDS_P1;SDS_P2;PMS_P1;PMS_P2;Temp;Humidity;BMP_temperature;BMP_pressure;BME280_temperature;BME280_humidity;BME280_pressure;Samples;Min_cycle;Max_cycle;Signal;HPM_P1;HPM_P2
2021/12/09 00:00:19;;;;;;;41.90;20.40;;;;;;;;;;6235580;28;20036;-82
2021/12/09 00:03:20;;;;;;;33.38;15.50;;;;;;;;;;6239128;28;20021;-82
2021/12/09 00:06:25;;;;;;;36.97;17.35;;;;;;;;;;6238219;28;20378;-83
2021/12/09 00:09:25;;;;;;;34.97;17.45;;;;;;;;;;6230315;28;20025;-83
2021/12/09 00:12:27;;;;;;;36.30;17.02;;;;;;;;;;6235831;28;20421;-83
2021/12/09 00:15:27;;;;;;;37.75;16.67;;;;;;;;;;6238610;28;20030;-83
2021/12/09 00:18:28;;;;;;;35.20;17.15;;;;;;;;;;6238940;28;20021;-82
2021/12/09 00:21:28;;;;;;;36.42;18.27;;;;;;;;;;6232164;28;20113;-83
2021/12/09 00:24:28;;;;;;;42.58;17.25;;;;;;;;;;6240010;28;20018;-83
2021/12/09 00:27:28;;;;;;;37.33;19.85;;;;;;;;;;6235243;28;20310;-83
2021/12/09 00:30:30;;;;;;;35.78;17.50;;;;;;;;;;6236437;28;20040;-83
2021/12/09 00:33:30;;;;;;;41.00;20.40;;;;;;;;;;6234136;28;20034;-83
2021/12/09 00:36:56;;;;;;;45.15;21.83;;;;;;;;;;6235090;28;20071;-83
2021/12/09 00:39:56;;;;;;;41.30;23.45;;;;;;;;;;6235774;28;20407;-83
2021/12/09 00:42:56;;;;;;;42.33;19.77;;;;;;;;;;6237118;28;20025;-83
2021/12/09 00:45:57;;;;;;;37.78;20.40;;;;;;;;;;6235371;28;20060;-83
2021/12/09 00:48:57;;;;;;;39.58;18.38;;;;;;;;;;6229611;28;20017;-83
2021/12/09 00:51:58;;;;;;;44.90;20.95;;;;;;;;;;6240803;28;20042;-83
2021/12/09 00:54:59;;;;;;;36.63;18.88;;;;;;;;;;6232791;28;20018;-82
2021/12/09 00:58:00;;;;;;;37.30;17.55;;;;;;;;;;6231971;28;20100;-82
2021/12/09 01:01:00;;;;;;;39.42;20.00;;;;;;;;;;6236480;28;20318;-83
2021/12/09 01:04:00;;;;;;;42.85;20.98;;;;;;;;;;6239565;28;20440;-82
2021/12/09 01:07:01;;;;;;;39.38;19.95;;;;;;;;;;6245063;28;20014;-83
2021/12/09 01:10:03;;;;;;;41.42;17.35;;;;;;;;;;6241936;28;20025;-82
2021/12/09 01:13:03;;;;;;;43.00;18.70;;;;;;;;;;6241542;28;20532;-83
2021/12/09 01:16:04;;;;;;;43.15;20.95;;;;;;;;;;6234328;28;20013;-82
2021/12/09 01:19:04;;;;;;;40.97;17.23;;;;;;;;;;6233422;28;20065;-83
2021/12/09 01:22:05;;;;;;;43.90;19.85;;;;;;;;;;6245122;28;20028;-82
2021/12/09 01:25:06;;;;;;;48.55;18.52;;;;;;;;;;6241617;28;20420;-83
2021/12/09 01:28:09;;;;;;;47.30;18.80;;;;;;;;;;6238518;28;20022;-82
2021/12/09 01:31:09;;;;;;;45.78;19.92;;;;;;;;;;6233429;28;20026;-83
2021/12/09 01:34:10;;;;;;;41.70;17.48;;;;;;;;;;6251238;28;20289;-83
2021/12/09 01:37:10;;;;;;;47.00;21.27;;;;;;;;;;6248706;28;20020;-82
2021/12/09 01:40:11;;;;;;;45.72;19.50;;;;;;;;;;6233466;28;20022;-83
2021/12/09 01:43:12;;;;;;;45.92;21.05;;;;;;;;;;6241834;28;20095;-83
2021/12/09 01:46:13;;;;;;;44.40;20.95;;;;;;;;;;6253567;28;20048;-83
2021/12/09 01:49:13;;;;;;;49.47;20.08;;;;;;;;;;6235771;28;20480;-82
2021/12/09 01:52:14;;;;;;;45.67;21.10;;;;;;;;;;6233815;28;20041;-84
2021/12/09 01:55:14;;;;;;;46.72;20.63;;;;;;;;;;6238438;28;20026;-82
2021/12/09 01:58:15;;;;;;;42.70;20.83;;;;;;;;;;6234561;28;20053;-82
2021/12/09 02:01:15;;;;;;;50.63;21.92;;;;;;;;;;6244854;28;20529;-82
2021/12/09 02:04:16;;;;;;;49.60;22.90;;;;;;;;;;6239603;28;20393;-83
2021/12/09 02:07:16;;;;;;;53.05;26.85;;;;;;;;;;6231000;28;20028;-82
2021/12/09 02:10:18;;;;;;;47.10;23.35;;;;;;;;;;6235736;28;20010;-83
2021/12/09 02:13:19;;;;;;;51.00;23.27;;;;;;;;;;6228313;28;20061;-83
2021/12/09 02:16:20;;;;;;;42.13;21.08;;;;;;;;;;6236855;28;20544;-83
2021/12/09 02:19:21;;;;;;;51.75;23.27;;;;;;;;;;6234464;28;20370;-83
2021/12/09 02:22:21;;;;;;;47.90;22.70;;;;;;;;;;6256899;28;20335;-83
2021/12/09 02:25:21;;;;;;;49.38;23.63;;;;;;;;;;6238666;28;20025;-82
2021/12/09 02:28:22;;;;;;;40.42;17.77;;;;;;;;;;6232880;28;20489;-83
2021/12/09 02:31:24;;;;;;;48.33;21.25;;;;;;;;;;6240335;28;20014;-83
2021/12/09 02:34:24;;;;;;;43.85;22.58;;;;;;;;;;6237817;28;20100;-84
2021/12/09 02:37:24;;;;;;;55.45;21.13;;;;;;;;;;6234913;28;20360;-83
2021/12/09 02:40:25;;;;;;;48.47;20.05;;;;;;;;;;6253304;28;20013;-83
2021/12/09 02:43:27;;;;;;;43.90;20.15;;;;;;;;;;6238651;28;20104;-83
2021/12/09 02:46:28;;;;;;;43.85;21.90;;;;;;;;;;6236576;28;20033;-83
2021/12/09 02:49:29;;;;;;;43.47;21.10;;;;;;;;;;6239586;28;20438;-83
2021/12/09 02:52:29;;;;;;;51.67;23.07;;;;;;;;;;6243571;28;20055;-84
2021/12/09 02:55:30;;;;;;;46.65;21.48;;;;;;;;;;6238353;28;20415;-83
2021/12/09 02:58:30;;;;;;;43.67;21.65;;;;;;;;;;6255197;28;20053;-83
2021/12/09 03:01:33;;;;;;;52.75;24.77;;;;;;;;;;6239139;28;20018;-82
2021/12/09 03:04:37;;;;;;;47.83;22.15;;;;;;;;;;6242208;28;20216;-82
2021/12/09 03:07:40;;;;;;;40.47;19.50;;;;;;;;;;6244203;28;20041;-82
2021/12/09 03:10:40;;;;;;;41.78;19.05;;;;;;;;;;6232861;28;20459;-83
2021/12/09 03:13:42;;;;;;;44.92;18.50;;;;;;;;;;6242353;28;20040;-83
2021/12/09 03:16:43;;;;;;;47.50;20.67;;;;;;;;;;6241300;28;20116;-83
2021/12/09 03:19:43;;;;;;;39.60;19.60;;;;;;;;;;6251893;28;20053;-83
2021/12/09 03:22:45;;;;;;;47.65;23.13;;;;;;;;;;6240636;28;20037;-83
2021/12/09 03:25:45;;;;;;;53.03;21.20;;;;;;;;;;6237304;28;20022;-83
2021/12/09 03:28:45;;;;;;;55.13;23.02;;;;;;;;;;6244829;28;20269;-83
2021/12/09 03:31:47;;;;;;;43.47;21.02;;;;;;;;;;6238888;28;20585;-83
2021/12/09 03:34:47;;;;;;;39.58;17.10;;;;;;;;;;6239700;28;20020;-83
2021/12/09 03:37:48;;;;;;;53.83;24.95;;;;;;;;;;6233578;28;20026;-82
2021/12/09 03:40:49;;;;;;;37.73;18.73;;;;;;;;;;6240276;28;20022;-83
2021/12/09 03:43:49;;;;;;;41.17;19.88;;;;;;;;;;6238402;28;20166;-83
2021/12/09 03:46:51;;;;;;;44.00;22.40;;;;;;;;;;6230588;28;20020;-82
2021/12/09 03:49:51;;;;;;;;;;;;;;;;;;6237686;28;20088;-83
2021/12/09 03:52:52;;;;;;;46.22;20.38;;;;;;;;;;6239562;28;19905;-83
2021/12/09 03:55:52;;;;;;;40.03;17.23;;;;;;;;;;6241413;28;20260;-83
2021/12/09 03:58:52;;;;;;;48.85;23.45;;;;;;;;;;6232776;28;20029;-83
2021/12/09 04:01:54;;;;;;;49.95;19.80;;;;;;;;;;6237436;28;20028;-82
2021/12/09 04:04:54;;;;;;;;;;;;;;;;;;6241173;28;20120;-83
2021/12/09 04:07:55;;;;;;;48.17;18.95;;;;;;;;;;6233862;28;19950;-83
2021/12/09 04:10:55;;;;;;;42.20;18.88;;;;;;;;;;6233971;28;20272;-82
2021/12/09 04:13:55;;;;;;;43.88;22.48;;;;;;;;;;6237763;28;20050;-83
2021/12/09 04:16:56;;;;;;;43.85;20.90;;;;;;;;;;6232905;28;20093;-83
2021/12/09 04:19:56;;;;;;;47.55;22.10;;;;;;;;;;6235531;28;20108;-83
2021/12/09 04:22:57;;;;;;;49.53;22.23;;;;;;;;;;6239653;28;20498;-83
2021/12/09 04:25:57;;;;;;;44.00;21.35;;;;;;;;;;6230991;28;20022;-83
2021/12/09 04:28:58;;;;;;;41.58;18.63;;;;;;;;;;6233489;28;20543;-83
2021/12/09 04:31:58;;;;;;;49.05;21.90;;;;;;;;;;6239085;28;20018;-83
2021/12/09 04:34:58;;;;;;;57.55;24.48;;;;;;;;;;6233674;28;20537;-83
2021/12/09 04:37:58;;;;;;;44.20;19.00;;;;;;;;;;6242482;28;20025;-83
2021/12/09 04:40:59;;;;;;;53.58;24.48;;;;;;;;;;6244078;28;20025;-82
2021/12/09 04:43:59;;;;;;;52.58;22.35;;;;;;;;;;6253405;28;20117;-83
2021/12/09 04:47:01;;;;;;;42.53;21.13;;;;;;;;;;6240375;28;20028;-82
2021/12/09 04:50:03;;;;;;;45.88;19.73;;;;;;;;;;6243082;28;20092;-82
2021/12/09 04:53:04;;;;;;;47.78;19.30;;;;;;;;;;6247463;28;20028;-83
2021/12/09 04:56:04;;;;;;;48.10;20.73;;;;;;;;;;6238604;28;20481;-83
2021/12/09 04:59:05;;;;;;;54.78;22.65;;;;;;;;;;6238824;28;20046;-82
2021/12/09 05:02:10;;;;;;;48.50;21.90;;;;;;;;;;6237972;28;20022;-83
2021/12/09 05:05:11;;;;;;;59.95;23.85;;;;;;;;;;6237926;28;20025;-82
2021/12/09 05:08:15;;;;;;;51.05;21.42;;;;;;;;;;6257960;28;20026;-83
2021/12/09 05:12:02;;;;;;;55.13;24.02;;;;;;;;;;6233934;28;20025;-83
2021/12/09 05:14:37;;;;;;;44.90;20.23;;;;;;;;;;6236102;28;20034;-83
2021/12/09 05:17:37;;;;;;;53.00;23.02;;;;;;;;;;6238875;28;20029;-84
2021/12/09 05:20:38;;;;;;;44.17;19.58;;;;;;;;;;6243364;28;20032;-83
2021/12/09 05:23:39;;;;;;;53.75;21.65;;;;;;;;;;6240433;28;20033;-83
2021/12/09 05:26:47;;;;;;;45.17;20.42;;;;;;;;;;6237953;28;20439;-82
2021/12/09 05:30:02;;;;;;;48.97;19.30;;;;;;;;;;6239209;28;20017;-83
2021/12/09 05:33:03;;;;;;;49.70;21.92;;;;;;;;;;6231707;28;20026;-83
2021/12/09 05:36:03;;;;;;;51.35;21.73;;;;;;;;;;6233350;28;20423;-83
2021/12/09 05:39:06;;;;;;;51.05;22.30;;;;;;;;;;6237804;28;20553;-83
2021/12/09 05:42:07;;;;;;;52.97;20.85;;;;;;;;;;6238213;28;20064;-83
2021/12/09 05:45:07;;;;;;;63.00;20.33;;;;;;;;;;6238327;28;20025;-82
2021/12/09 05:48:10;;;;;;;50.55;21.65;;;;;;;;;;6239341;28;20053;-83
2021/12/09 05:51:11;;;;;;;;;;;;;;;;;;6239881;28;20049;-83
2021/12/09 05:54:12;;;;;;;52.08;22.17;;;;;;;;;;6236732;28;19913;-82
2021/12/09 05:57:12;;;;;;;46.15;18.88;;;;;;;;;;6234519;28;20037;-82
2021/12/09 06:00:13;;;;;;;43.17;19.23;;;;;;;;;;6236967;28;20020;-83
2021/12/09 06:03:13;;;;;;;48.97;22.92;;;;;;;;;;6237183;28;20052;-84
2021/12/09 06:06:13;;;;;;;59.67;24.38;;;;;;;;;;6243171;28;20469;-84
2021/12/09 06:09:14;;;;;;;44.95;21.20;;;;;;;;;;6234813;28;20030;-83
2021/12/09 06:12:14;;;;;;;41.80;19.48;;;;;;;;;;6229954;28;20025;-82
2021/12/09 06:15:15;;;;;;;49.15;19.20;;;;;;;;;;6251954;28;20036;-82
2021/12/09 06:18:15;;;;;;;38.15;19.02;;;;;;;;;;6252424;28;20032;-83
2021/12/09 06:21:15;;;;;;;48.95;21.20;;;;;;;;;;6243831;28;20401;-84
2021/12/09 06:24:18;;;;;;;49.75;19.55;;;;;;;;;;6234305;28;20064;-82
2021/12/09 06:27:18;;;;;;;46.15;21.15;;;;;;;;;;6232154;28;20021;-82
2021/12/09 06:30:19;;;;;;;50.35;20.75;;;;;;;;;;6236379;28;20017;-83
2021/12/09 06:33:19;;;;;;;46.17;22.20;;;;;;;;;;6240655;28;20453;-83
2021/12/09 06:36:19;;;;;;;47.00;23.10;;;;;;;;;;6235362;28;20017;-83
2021/12/09 06:39:20;;;;;;;47.47;20.80;;;;;;;;;;6230181;28;20049;-83
2021/12/09 06:42:20;;;;;;;52.40;22.70;;;;;;;;;;6232516;28;20026;-83
2021/12/09 06:45:21;;;;;;;51.08;21.63;;;;;;;;;;6234822;28;20028;-83
2021/12/09 06:48:22;;;;;;;45.88;19.80;;;;;;;;;;6239834;28;20055;-83
2021/12/09 06:51:22;;;;;;;42.42;19.75;;;;;;;;;;6237856;28;20061;-83
2021/12/09 06:54:23;;;;;;;44.22;20.13;;;;;;;;;;6235602;28;20053;-83
2021/12/09 06:57:23;;;;;;;45.05;19.10;;;;;;;;;;6235892;28;20113;-82
2021/12/09 07:00:25;;;;;;;46.03;19.02;;;;;;;;;;6235477;28;20026;-83
2021/12/09 07:03:25;;;;;;;42.53;15.82;;;;;;;;;;6239422;28;20412;-83
2021/12/09 07:06:26;;;;;;;40.42;20.33;;;;;;;;;;6234841;28;20036;-83
2021/12/09 07:09:29;;;;;;;39.42;18.42;;;;;;;;;;6238360;28;20469;-83
2021/12/09 07:12:29;;;;;;;47.13;26.13;;;;;;;;;;6239107;28;20062;-83
2021/12/09 07:15:29;;;;;;;45.13;21.40;;;;;;;;;;6234256;28;20505;-83
2021/12/09 07:18:30;;;;;;;42.38;19.80;;;;;;;;;;6244221;28;20473;-83
2021/12/09 07:21:30;;;;;;;41.05;18.08;;;;;;;;;;6231251;28;20076;-83
2021/12/09 07:24:31;;;;;;;44.60;20.42;;;;;;;;;;6235581;28;20021;-83
2021/12/09 07:27:32;;;;;;;40.47;19.83;;;;;;;;;;6226279;28;20053;-83
2021/12/09 07:30:32;;;;;;;43.50;20.77;;;;;;;;;;6231230;28;20014;-82
2021/12/09 07:33:32;;;;;;;52.22;21.63;;;;;;;;;;6233445;28;20413;-83
2021/12/09 07:36:33;;;;;;;60.65;24.85;;;;;;;;;;6233634;28;20026;-83
2021/12/09 07:39:33;;;;;;;44.72;20.90;;;;;;;;;;6228490;28;20060;-83
2021/12/09 07:42:34;;;;;;;40.15;18.02;;;;;;;;;;6236825;28;20030;-83
2021/12/09 07:45:34;;;;;;;34.75;19.17;;;;;;;;;;6236688;28;20025;-83
2021/12/09 07:48:35;;;;;;;39.25;19.55;;;;;;;;;;6232242;28;20021;-82
2021/12/09 07:51:35;;;;;;;40.92;19.83;;;;;;;;;;6237408;28;20040;-82
2021/12/09 07:54:35;;;;;;;41.88;18.00;;;;;;;;;;6237219;28;20036;-82
2021/12/09 07:57:36;;;;;;;42.45;20.00;;;;;;;;;;6251694;28;20728;-83
2021/12/09 08:00:36;;;;;;;43.78;20.65;;;;;;;;;;6227348;28;20022;-83
2021/12/09 08:03:37;;;;;;;45.28;20.63;;;;;;;;;;6231673;28;20080;-82
2021/12/09 08:06:37;;;;;;;48.50;21.20;;;;;;;;;;6233091;28;20104;-83
2021/12/09 08:09:38;;;;;;;42.92;18.50;;;;;;;;;;6233748;28;20025;-82
2021/12/09 08:12:38;;;;;;;43.00;18.88;;;;;;;;;;6239690;28;20045;-82
2021/12/09 08:15:45;;;;;;;44.15;20.88;;;;;;;;;;6237920;28;20065;-83
2021/12/09 08:18:55;;;;;;;39.55;16.88;;;;;;;;;;6237670;28;20010;-83
2021/12/09 08:21:56;;;;;;;45.15;21.92;;;;;;;;;;6241945;28;20018;-82
2021/12/09 08:24:56;;;;;;;43.88;20.92;;;;;;;;;;6233773;28;20106;-83
2021/12/09 08:27:56;;;;;;;49.45;23.50;;;;;;;;;;6248895;28;20021;-83
2021/12/09 08:30:57;;;;;;;45.35;20.27;;;;;;;;;;6251735;28;20466;-83
2021/12/09 08:33:57;;;;;;;39.33;20.27;;;;;;;;;;6232155;28;20026;-84
2021/12/09 08:36:57;;;;;;;47.17;21.95;;;;;;;;;;6229990;28;20029;-84
2021/12/09 08:39:58;;;;;;;47.85;23.35;;;;;;;;;;6230676;28;20024;-83
2021/12/09 08:42:58;;;;;;;44.83;23.63;;;;;;;;;;6235897;28;20025;-84
2021/12/09 08:45:58;;;;;;;50.85;22.52;;;;;;;;;;6228562;28;20021;-84
2021/12/09 08:48:59;;;;;;;40.90;19.42;;;;;;;;;;6231729;28;20018;-84
2021/12/09 08:51:59;;;;;;;44.70;20.73;;;;;;;;;;6230638;28;20038;-84
2021/12/09 08:54:59;;;;;;;48.58;20.67;;;;;;;;;;6227464;28;20383;-84
2021/12/09 08:58:00;;;;;;;38.00;19.65;;;;;;;;;;6225395;28;20080;-84
2021/12/09 09:01:01;;;;;;;36.88;17.10;;;;;;;;;;6226021;28;20021;-85
2021/12/09 09:04:02;;;;;;;46.10;22.67;;;;;;;;;;6237068;28;20026;-84
2021/12/09 09:07:03;;;;;;;44.65;21.70;;;;;;;;;;6232592;28;20509;-84
2021/12/09 09:10:04;;;;;;;37.80;19.80;;;;;;;;;;6239999;28;20017;-84
2021/12/09 09:13:05;;;;;;;42.97;21.92;;;;;;;;;;6234093;28;20101;-84
2021/12/09 09:16:05;;;;;;;42.92;21.10;;;;;;;;;;6232431;28;20025;-85
2021/12/09 09:19:05;;;;;;;46.08;22.50;;;;;;;;;;6229988;28;20033;-84
2021/12/09 09:22:06;;;;;;;39.28;19.80;;;;;;;;;;6235536;28;20014;-85
2021/12/09 09:25:07;;;;;;;46.17;22.42;;;;;;;;;;6226088;28;20034;-85
2021/12/09 09:28:07;;;;;;;49.08;23.85;;;;;;;;;;6228689;28;20024;-86
2021/12/09 09:31:08;;;;;;;44.10;24.92;;;;;;;;;;6231132;28;20014;-85
2021/12/09 09:34:11;;;;;;;44.40;22.48;;;;;;;;;;6228555;28;20397;-85
2021/12/09 09:37:11;;;;;;;44.10;21.65;;;;;;;;;;6236949;28;20029;-86
2021/12/09 09:40:14;;;;;;;43.58;24.05;;;;;;;;;;6239693;28;20018;-85
2021/12/09 09:43:27;;;;;;;43.40;21.95;;;;;;;;;;6235621;28;20076;-85
2021/12/09 09:46:29;;;;;;;45.35;21.33;;;;;;;;;;6230971;28;20026;-85
2021/12/09 09:49:34;;;;;;;;;;;;;;;;;;6236304;28;20056;-85
2021/12/09 09:52:36;;;;;;;44.40;22.23;;;;;;;;;;6238734;28;19921;-85
2021/12/09 09:55:36;;;;;;;45.85;21.65;;;;;;;;;;6234473;28;20040;-85
2021/12/09 09:58:37;;;;;;;49.65;22.92;;;;;;;;;;6231167;28;20598;-85
2021/12/09 10:01:39;;;;;;;49.95;22.40;;;;;;;;;;6226072;28;20525;-85
2021/12/09 10:04:48;;;;;;;43.90;21.55;;;;;;;;;;6233508;28;20026;-85
2021/12/09 10:07:49;;;;;;;48.78;23.77;;;;;;;;;;6239373;28;20032;-85
2021/12/09 10:10:49;;;;;;;50.20;24.10;;;;;;;;;;6235541;28;20059;-86
2021/12/09 10:13:49;;;;;;;48.08;23.00;;;;;;;;;;6231131;28;20025;-86
2021/12/09 10:17:05;;;;;;;52.22;26.40;;;;;;;;;;6231847;28;20021;-86
2021/12/09 10:20:05;;;;;;;52.53;25.77;;;;;;;;;;6240159;28;20025;-85
2021/12/09 10:23:21;;;;;;;47.33;21.08;;;;;;;;;;6232517;28;20072;-86
2021/12/09 10:26:29;;;;;;;49.63;23.27;;;;;;;;;;6240464;28;20389;-85
2021/12/09 10:29:37;;;;;;;54.03;24.20;;;;;;;;;;6229873;28;20021;-85
2021/12/09 10:32:39;;;;;;;51.88;24.20;;;;;;;;;;6228842;28;20524;-85
2021/12/09 10:35:40;;;;;;;43.00;21.42;;;;;;;;;;6231830;28;20032;-86
2021/12/09 10:38:40;;;;;;;49.25;25.20;;;;;;;;;;6234662;28;20022;-87
2021/12/09 10:41:40;;;;;;;51.63;24.02;;;;;;;;;;6233406;28;20432;-86
2021/12/09 10:44:43;;;;;;;47.33;23.58;;;;;;;;;;6226448;28;20029;-85
2021/12/09 10:53:58;;;;;;;49.42;24.08;;;;;;;;;;6230157;28;20079;-84
2021/12/09 10:57:19;;;;;;;44.72;23.30;;;;;;;;;;6231165;28;20017;-84
2021/12/09 11:00:25;;;;;;;47.40;24.38;;;;;;;;;;6230812;28;20120;-85
2021/12/09 11:03:27;;;;;;;44.00;22.80;;;;;;;;;;6231151;28;20016;-84
2021/12/09 11:06:35;;;;;;;49.17;22.13;;;;;;;;;;6241054;28;20319;-84
2021/12/09 11:09:36;;;;;;;47.85;21.25;;;;;;;;;;6236189;28;20040;-84
2021/12/09 11:12:37;;;;;;;45.30;20.85;;;;;;;;;;6237911;28;20466;-84
2021/12/09 11:15:45;;;;;;;44.17;23.27;;;;;;;;;;6235563;28;20022;-85
2021/12/09 11:18:46;;;;;;;46.40;20.85;;;;;;;;;;6242088;28;20010;-84
2021/12/09 11:21:54;;;;;;;49.38;24.17;;;;;;;;;;6230588;28;20026;-85
2021/12/09 11:24:59;;;;;;;47.85;24.17;;;;;;;;;;6236035;28;20106;-85
2021/12/09 11:28:12;;;;;;;45.10;22.63;;;;;;;;;;6235457;28;20021;-86
2021/12/09 11:31:17;;;;;;;43.75;21.55;;;;;;;;;;6237276;28;20013;-84
2021/12/09 11:34:21;;;;;;;51.60;24.08;;;;;;;;;;6228801;28;20014;-85
2021/12/09 11:40:35;;;;;;;48.72;23.60;;;;;;;;;;6228988;28;20029;-86
2021/12/09 11:43:36;;;;;;;50.25;24.58;;;;;;;;;;6234868;28;20045;-84
2021/12/09 11:46:37;;;;;;;44.15;22.05;;;;;;;;;;6230995;28;20032;-84
2021/12/09 11:49:37;;;;;;;44.57;21.97;;;;;;;;;;6233414;28;20021;-84
2021/12/09 11:52:38;;;;;;;42.47;23.35;;;;;;;;;;6226905;28;20044;-84
2021/12/09 11:55:43;;;;;;;45.55;23.25;;;;;;;;;;6222977;28;20112;-85
2021/12/09 11:59:07;;;;;;;44.60;20.52;;;;;;;;;;6223344;28;20057;-85
2021/12/09 12:15:52;;;;;;;51.58;23.90;;;;;;;;;;6228999;28;20022;-85
2021/12/09 12:19:01;;;;;;;44.97;22.13;;;;;;;;;;6229110;28;20438;-85
2021/12/09 12:22:39;;;;;;;49.50;23.90;;;;;;;;;;6229592;28;20529;-84
2021/12/09 12:29:09;;;;;;;48.75;20.50;;;;;;;;;;6225327;28;20021;-85
2021/12/09 12:41:26;;;;;;;49.20;23.27;;;;;;;;;;6232310;28;20470;-84
2021/12/09 12:44:27;;;;;;;51.58;24.13;;;;;;;;;;6224602;28;20022;-84
2021/12/09 12:47:28;;;;;;;39.70;18.25;;;;;;;;;;6230022;28;20106;-84
2021/12/09 12:50:28;;;;;;;52.30;25.37;;;;;;;;;;6226568;28;20617;-85
2021/12/09 12:53:30;;;;;;;49.28;23.65;;;;;;;;;;6225036;28;20268;-85
2021/12/09 12:56:32;;;;;;;54.28;23.58;;;;;;;;;;6228637;28;20032;-84
2021/12/09 12:59:35;;;;;;;51.80;25.25;;;;;;;;;;6235091;28;20017;-84
2021/12/09 13:06:11;;;;;;;45.30;24.88;;;;;;;;;;6241735;28;20040;-84
2021/12/09 13:09:35;;;;;;;56.42;23.77;;;;;;;;;;6237338;28;20116;-84
2021/12/09 13:12:43;;;;;;;51.33;23.58;;;;;;;;;;6234930;28;20013;-84
2021/12/09 13:16:05;;;;;;;55.65;24.80;;;;;;;;;;6237912;28;20382;-84
2021/12/09 13:19:19;;;;;;;57.60;28.40;;;;;;;;;;6236182;28;20077;-84
2021/12/09 13:22:21;;;;;;;60.45;27.63;;;;;;;;;;6231198;28;20026;-84
2021/12/09 13:25:26;;;;;;;51.40;24.73;;;;;;;;;;6234853;28;20060;-84
2021/12/09 13:28:50;;;;;;;59.80;29.50;;;;;;;;;;6236358;28;20017;-84
2021/12/09 13:32:12;;;;;;;52.13;24.58;;;;;;;;;;6240808;28;20013;-84
2021/12/09 13:35:18;;;;;;;57.40;25.20;;;;;;;;;;6237868;28;20478;-84
2021/12/09 13:47:55;;;;;;;52.80;25.45;;;;;;;;;;6230692;28;20052;-84
2021/12/09 13:54:18;;;;;;;51.80;23.40;;;;;;;;;;6237501;28;20029;-81
2021/12/09 13:57:27;;;;;;;47.70;24.67;;;;;;;;;;6247500;28;20022;-82
2021/12/09 14:00:39;;;;;;;52.80;26.58;;;;;;;;;;6234870;28;20021;-82
2021/12/09 14:03:39;;;;;;;48.60;22.30;;;;;;;;;;6231519;28;20371;-83
2021/12/09 14:06:49;;;;;;;42.95;21.35;;;;;;;;;;6241147;28;20272;-82
2021/12/09 14:10:01;;;;;;;51.88;23.48;;;;;;;;;;6237913;28;20340;-83
2021/12/09 14:13:06;;;;;;;47.38;21.35;;;;;;;;;;6238203;28;20013;-82
2021/12/09 14:16:25;;;;;;;49.47;23.42;;;;;;;;;;6234737;28;20132;-82
2021/12/09 14:22:33;;;;;;;52.22;24.00;;;;;;;;;;6231298;28;20069;-82
2021/12/09 14:25:35;;;;;;;44.35;21.77;;;;;;;;;;6238188;28;20026;-83
2021/12/09 14:28:35;;;;;;;52.25;25.17;;;;;;;;;;6232113;28;20025;-83
2021/12/09 14:31:47;;;;;;;51.90;24.15;;;;;;;;;;6238028;28;20026;-82
2021/12/09 14:34:49;;;;;;;48.55;22.70;;;;;;;;;;6229139;28;20482;-84
2021/12/09 14:37:51;;;;;;;56.20;23.65;;;;;;;;;;6232697;28;20063;-82
2021/12/09 14:40:55;;;;;;;48.42;23.35;;;;;;;;;;6239440;28;20029;-82
2021/12/09 14:43:56;;;;;;;53.65;23.83;;;;;;;;;;6235936;28;20409;-83
2021/12/09 14:47:04;;;;;;;64.45;30.00;;;;;;;;;;6236901;28;20055;-83
2021/12/09 14:50:08;;;;;;;62.42;25.00;;;;;;;;;;6234908;28;20037;-82
2021/12/09 14:53:09;;;;;;;56.95;27.92;;;;;;;;;;6227117;28;20026;-84
2021/12/09 14:56:28;;;;;;;62.17;28.40;;;;;;;;;;6225427;28;20602;-83
2021/12/09 14:59:31;;;;;;;63.05;28.85;;;;;;;;;;6234359;28;20053;-82
2021/12/09 15:02:38;;;;;;;56.45;27.63;;;;;;;;;;6227824;28;20033;-83
2021/12/09 15:05:56;;;;;;;54.78;25.67;;;;;;;;;;6243013;28;20084;-83
2021/12/09 15:09:07;;;;;;;57.70;25.92;;;;;;;;;;6233367;28;20382;-83
2021/12/09 15:12:09;;;;;;;61.90;27.83;;;;;;;;;;6228323;28;20018;-83
2021/12/09 15:15:25;;;;;;;42.17;21.73;;;;;;;;;;6232370;28;20021;-82
2021/12/09 15:18:26;;;;;;;55.75;22.67;;;;;;;;;;6232497;28;20033;-82
2021/12/09 15:21:31;;;;;;;39.25;21.90;;;;;;;;;;6227613;28;20113;-83
2021/12/09 15:24:32;;;;;;;43.33;19.92;;;;;;;;;;6228653;28;20065;-82
2021/12/09 15:27:47;;;;;;;45.17;21.17;;;;;;;;;;6226472;28;20035;-82
2021/12/09 15:30:48;;;;;;;52.67;23.60;;;;;;;;;;6227550;28;20041;-82
2021/12/09 15:33:51;;;;;;;50.20;23.65;;;;;;;;;;6227081;28;20450;-83
2021/12/09 15:36:56;;;;;;;37.88;22.27;;;;;;;;;;6229363;28;20055;-82
2021/12/09 15:40:00;;;;;;;42.17;22.15;;;;;;;;;;6226952;28;20029;-82
2021/12/09 15:43:08;;;;;;;42.15;22.42;;;;;;;;;;6233031;28;20117;-82
2021/12/09 15:46:09;;;;;;;51.45;23.88;;;;;;;;;;6239147;28;20036;-82
2021/12/09 15:49:10;;;;;;;53.22;22.48;;;;;;;;;;6239798;28;20358;-82
2021/12/09 15:52:11;;;;;;;53.97;24.50;;;;;;;;;;6235117;28;20064;-82
2021/12/09 15:55:14;;;;;;;49.23;23.07;;;;;;;;;;6226172;28;20100;-83
2021/12/09 15:58:19;;;;;;;49.50;23.52;;;;;;;;;;6233672;28;20025;-82
2021/12/09 16:01:21;;;;;;;53.40;25.02;;;;;;;;;;6227232;28;20022;-83
2021/12/09 16:04:26;;;;;;;;;;;;;;;;;;6238441;28;20048;-83
2021/12/09 16:07:26;;;;;;;48.85;23.83;;;;;;;;;;6236930;28;20357;-83
2021/12/09 16:10:27;;;;;;;63.47;25.77;;;;;;;;;;6234564;28;20016;-82
2021/12/09 16:13:27;;;;;;;51.88;24.60;;;;;;;;;;6232172;28;20095;-83
2021/12/09 16:16:31;;;;;;;64.13;26.98;;;;;;;;;;6232384;28;20026;-83
2021/12/09 16:19:40;;;;;;;61.42;28.58;;;;;;;;;;6231901;28;20389;-83
2021/12/09 16:22:41;;;;;;;66.10;32.55;;;;;;;;;;6231145;28;20441;-83
2021/12/09 16:25:44;;;;;;;61.78;28.95;;;;;;;;;;6238774;28;20017;-82
2021/12/09 16:28:45;;;;;;;122.75;45.22;;;;;;;;;;6238550;28;20016;-83
2021/12/09 16:31:46;;;;;;;77.22;35.13;;;;;;;;;;6238036;28;20014;-82
2021/12/09 16:34:47;;;;;;;57.97;27.75;;;;;;;;;;6244113;28;20447;-83
2021/12/09 16:37:48;;;;;;;90.30;43.58;;;;;;;;;;6242285;28;20044;-83
2021/12/09 16:40:48;;;;;;;89.68;43.28;;;;;;;;;;6247526;28;20036;-83
2021/12/09 16:43:49;;;;;;;66.20;31.52;;;;;;;;;;6237276;28;20088;-83
2021/12/09 16:46:49;;;;;;;58.03;29.13;;;;;;;;;;6238639;28;20021;-83
2021/12/09 16:49:51;;;;;;;63.25;28.77;;;;;;;;;;6239762;28;20405;-83
2021/12/09 16:52:51;;;;;;;58.10;27.98;;;;;;;;;;6238840;28;20298;-82
2021/12/09 16:56:04;;;;;;;58.45;28.13;;;;;;;;;;6230837;28;20025;-83
2021/12/09 16:59:12;;;;;;;62.90;29.13;;;;;;;;;;6237075;28;20079;-83
2021/12/09 17:02:13;;;;;;;56.60;30.17;;;;;;;;;;6229971;28;20549;-83
2021/12/09 17:05:14;;;;;;;69.18;31.33;;;;;;;;;;6231166;28;20032;-82
2021/12/09 17:08:14;;;;;;;58.17;25.27;;;;;;;;;;6234411;28;20014;-83
2021/12/09 17:11:15;;;;;;;69.40;27.98;;;;;;;;;;6231422;28;20437;-82
2021/12/09 17:14:16;;;;;;;68.20;28.20;;;;;;;;;;6230291;28;20017;-82
2021/12/09 17:17:16;;;;;;;63.35;28.77;;;;;;;;;;6233548;28;20025;-82
2021/12/09 17:20:19;;;;;;;73.47;32.30;;;;;;;;;;6236418;28;20083;-83
2021/12/09 17:23:19;;;;;;;67.55;30.88;;;;;;;;;;6240825;28;20013;-82
2021/12/09 17:26:20;;;;;;;66.45;30.33;;;;;;;;;;6236800;28;20405;-82
2021/12/09 17:29:20;;;;;;;59.50;28.35;;;;;;;;;;6242112;28;20017;-81
2021/12/09 17:32:21;;;;;;;79.95;34.42;;;;;;;;;;6235924;28;20481;-81
2021/12/09 17:35:21;;;;;;;65.97;29.42;;;;;;;;;;6239364;28;20049;-82
2021/12/09 17:38:21;;;;;;;62.33;29.13;;;;;;;;;;6238144;28;20080;-82
2021/12/09 17:41:22;;;;;;;58.63;26.95;;;;;;;;;;6235139;28;20026;-82
2021/12/09 17:44:23;;;;;;;66.53;31.77;;;;;;;;;;6236498;28;20053;-82
2021/12/09 17:47:27;;;;;;;66.57;29.00;;;;;;;;;;6238003;28;20080;-82
2021/12/09 17:50:28;;;;;;;63.95;30.08;;;;;;;;;;6237598;28;20096;-82
2021/12/09 17:53:29;;;;;;;64.13;29.23;;;;;;;;;;6228191;28;20025;-82
2021/12/09 17:56:29;;;;;;;68.80;32.65;;;;;;;;;;6230909;28;20069;-82
2021/12/09 17:59:30;;;;;;;69.88;33.75;;;;;;;;;;6239852;28;20021;-82
2021/12/09 18:02:30;;;;;;;64.72;30.30;;;;;;;;;;6234302;28;20026;-82
2021/12/09 18:05:32;;;;;;;56.88;28.42;;;;;;;;;;6242470;28;20041;-82
2021/12/09 18:08:32;;;;;;;65.15;32.60;;;;;;;;;;6241675;28;20104;-82
2021/12/09 18:11:35;;;;;;;56.80;24.17;;;;;;;;;;6235669;28;20779;-82
2021/12/09 18:14:35;;;;;;;59.25;26.60;;;;;;;;;;6234100;28;20095;-82
2021/12/09 18:17:37;;;;;;;56.75;27.42;;;;;;;;;;6236761;28;20018;-82
2021/12/09 18:20:38;;;;;;;66.07;27.25;;;;;;;;;;6232398;28;20458;-82
2021/12/09 18:23:38;;;;;;;70.68;28.05;;;;;;;;;;6239346;28;20021;-83
2021/12/09 18:26:38;;;;;;;61.20;29.38;;;;;;;;;;6239799;28;20010;-82
2021/12/09 18:29:39;;;;;;;61.20;27.92;;;;;;;;;;6237004;28;20006;-82
2021/12/09 18:32:39;;;;;;;53.80;21.83;;;;;;;;;;6240932;28;20037;-83
2021/12/09 18:35:41;;;;;;;55.78;24.95;;;;;;;;;;6234763;28;20458;-82
2021/12/09 18:38:42;;;;;;;48.03;23.33;;;;;;;;;;6240150;28;20013;-82